createdAt,value
2023-05-01T00:01:33.586Z,99247.17
2023-05-01T00:04:00.879Z,99249.36
2023-05-01T00:06:28.399Z,99255.46
2023-05-01T00:08:55.297Z,99254.20
2023-05-01T00:11:22.922Z,99256.58
2023-05-01T00:13:49.923Z,99262.21
2023-05-01T00:16:17.913Z,99262.58
2023-05-01T00:18:44.888Z,99269.63
2023-05-01T00:21:11.695Z,99272.94
2023-05-01T00:23:38.600Z,99270.27
2023-05-01T00:26:05.482Z,99269.51
2023-05-01T00:28:32.836Z,99274.91
2023-05-01T00:30:59.779Z,99276.88
2023-05-01T00:33:26.656Z,99270.80
2023-05-01T00:35:53.573Z,99269.13
2023-05-01T00:38:20.479Z,99273.77
2023-05-01T00:40:47.571Z,99272.25
2023-05-01T00:43:14.377Z,99273.45
2023-05-01T00:45:43.924Z,99270.70
2023-05-01T00:48:10.971Z,99276.34
2023-05-01T00:50:38.230Z,99279.21
2023-05-01T00:53:05.142Z,99279.56
2023-05-01T00:55:32.272Z,99281.81
2023-05-01T00:57:59.365Z,99280.46
2023-05-01T01:00:26.645Z,99281.17
2023-05-01T01:02:53.598Z,99284.94
2023-05-01T01:05:20.549Z,99287.14
2023-05-01T01:07:59.705Z,99286.93
2023-05-01T01:10:51.692Z,99289.78
2023-05-01T01:13:22.453Z,99286.92
2023-05-01T01:16:14.371Z,99294.19
2023-05-01T01:18:46.863Z,99287.11
2023-05-01T01:21:43.194Z,99289.10
2023-05-01T01:24:29.253Z,99292.96
2023-05-01T01:27:17.969Z,99291.92
2023-05-01T01:30:17.182Z,99293.76
2023-05-01T01:33:24.052Z,99297.95
2023-05-01T01:35:55.816Z,99297.06
2023-05-01T01:38:25.003Z,99295.98
2023-05-01T01:41:09.305Z,99303.60
2023-05-01T01:43:44.916Z,99299.64
2023-05-01T01:46:11.993Z,99302.84
2023-05-01T01:48:42.274Z,99302.64
2023-05-01T01:51:12.313Z,99312.16
2023-05-01T01:53:39.529Z,99316.70
2023-05-01T01:56:07.257Z,99323.15
2023-05-01T01:58:36.019Z,99318.64
2023-05-01T02:01:02.910Z,99328.52
2023-05-01T02:03:29.855Z,99336.68
2023-05-01T02:05:56.921Z,99338.52
2023-05-01T02:08:23.792Z,99339.69
2023-05-01T02:10:50.988Z,99340.87
2023-05-01T02:13:17.828Z,99343.09
2023-05-01T02:15:45.107Z,99345.88
2023-05-01T02:18:11.924Z,99345.61
2023-05-01T02:20:38.793Z,99350.31
2023-05-01T02:23:05.794Z,99352.96
2023-05-01T02:25:32.674Z,99358.52
2023-05-01T02:28:00.918Z,99364.23
2023-05-01T02:30:27.986Z,99363.77
2023-05-01T02:32:54.987Z,99364.13
2023-05-01T02:35:22.354Z,99357.48
2023-05-01T02:37:49.141Z,99359.39
2023-05-01T02:40:15.990Z,99357.36
2023-05-01T02:42:43.560Z,99357.91
2023-05-01T02:45:11.054Z,99368.52
2023-05-01T02:47:38.692Z,99371.45
2023-05-01T02:50:06.034Z,99377.92
2023-05-01T02:52:32.917Z,99380.14
2023-05-01T02:55:12.596Z,99382.35
2023-05-01T02:57:39.554Z,99384.91
2023-05-01T03:00:09.488Z,99386.45
2023-05-01T03:02:36.428Z,99390.00
2023-05-01T03:05:03.511Z,99395.98
2023-05-01T03:07:35.242Z,99397.50
2023-05-01T03:10:04.183Z,99402.59
2023-05-01T03:12:31.556Z,99403.09
2023-05-01T03:14:58.612Z,99401.20
2023-05-01T03:17:25.698Z,99405.11
2023-05-01T03:19:52.747Z,99411.48
2023-05-01T03:22:19.683Z,99410.83
2023-05-01T03:24:47.762Z,99418.73
2023-05-01T03:27:14.705Z,99415.02
2023-05-01T03:29:41.469Z,99420.85
2023-05-01T03:32:08.338Z,99422.05
2023-05-01T03:34:35.930Z,99423.09
2023-05-01T03:37:02.764Z,99426.52
2023-05-01T03:39:29.585Z,99429.27
2023-05-01T03:42:31.495Z,99432.02
2023-05-01T03:45:02.460Z,99438.35
2023-05-01T03:47:29.920Z,99438.70
2023-05-01T03:49:57.087Z,99434.85
2023-05-01T03:52:24.509Z,99441.84
2023-05-01T03:54:52.039Z,99442.21
2023-05-01T03:57:39.122Z,99445.69
2023-05-01T04:00:07.296Z,99448.13
2023-05-01T04:02:42.474Z,99449.04
2023-05-01T04:05:11.686Z,99448.73
2023-05-01T04:07:40.336Z,99444.63
2023-05-01T04:10:09.755Z,99453.37
2023-05-01T04:12:37.412Z,99449.28
2023-05-01T04:15:04.712Z,99452.02
2023-05-01T04:17:32.376Z,99454.92
2023-05-01T04:20:00.295Z,99456.96
2023-05-01T04:22:27.277Z,99459.69
2023-05-01T04:24:54.506Z,99461.55
2023-05-01T04:27:21.766Z,99467.20
2023-05-01T04:29:48.719Z,99470.59
2023-05-01T04:32:16.725Z,99471.95
2023-05-01T04:34:46.460Z,99478.77
2023-05-01T04:37:14.578Z,99477.88
2023-05-01T04:39:42.189Z,99479.91
2023-05-01T04:42:09.066Z,99481.23
2023-05-01T04:44:37.363Z,99482.69
2023-05-01T04:47:05.804Z,99481.05
2023-05-01T04:49:32.902Z,99486.27
2023-05-01T04:51:59.796Z,99487.88
2023-05-01T04:54:32.794Z,99491.37
2023-05-01T04:56:59.606Z,99501.07
2023-05-01T04:59:26.835Z,99507.16
2023-05-01T05:01:54.717Z,99510.20
2023-05-01T05:04:22.292Z,99512.98
2023-05-01T05:06:50.536Z,99518.52
2023-05-01T05:09:22.161Z,99521.51
2023-05-01T05:11:49.079Z,99520.87
2023-05-01T05:14:21.991Z,99517.98
2023-05-01T05:16:48.997Z,99526.11
2023-05-01T05:19:16.729Z,99527.86
2023-05-01T05:21:43.744Z,99524.97
2023-05-01T05:24:10.642Z,99528.94
2023-05-01T05:26:38.338Z,99532.76
2023-05-01T05:29:06.277Z,99534.29
2023-05-01T05:31:33.199Z,99535.85
2023-05-01T05:34:00.294Z,99543.27
2023-05-01T05:36:28.145Z,99548.41
2023-05-01T05:38:55.109Z,99551.17
2023-05-01T05:41:22.010Z,99554.11
2023-05-01T05:43:50.499Z,99552.54
2023-05-01T05:46:17.366Z,99558.75
2023-05-01T05:48:44.707Z,99559.09
2023-05-01T05:51:12.234Z,99553.23
2023-05-01T05:53:39.705Z,99558.71
2023-05-01T05:56:07.370Z,99561.46
2023-05-01T05:58:34.371Z,99564.70
2023-05-01T06:01:01.241Z,99572.27
2023-05-01T06:03:28.624Z,99569.32
2023-05-01T06:05:58.837Z,99577.21
2023-05-01T06:08:25.796Z,99573.73
2023-05-01T06:10:52.789Z,99576.98
2023-05-01T06:13:19.539Z,99581.09
2023-05-01T06:15:48.371Z,99585.38
2023-05-01T06:18:15.412Z,99585.71
2023-05-01T06:20:42.910Z,99588.10
2023-05-01T06:23:10.137Z,99592.77
2023-05-01T06:25:57.282Z,99593.40
2023-05-01T06:28:24.190Z,99598.67
2023-05-01T06:30:51.071Z,99596.15
2023-05-01T06:33:18.730Z,99599.60
2023-05-01T06:35:46.341Z,99600.94
2023-05-01T06:38:13.149Z,99605.01
2023-05-01T06:40:40.607Z,99610.65
2023-05-01T06:43:07.399Z,99611.27
2023-05-01T06:45:34.315Z,99609.61
2023-05-01T06:48:01.162Z,99614.10
2023-05-01T06:50:29.179Z,99615.63
2023-05-01T06:52:56.062Z,99612.74
2023-05-01T06:55:23.126Z,99613.12
2023-05-01T06:57:50.386Z,99621.68
2023-05-01T07:00:18.198Z,99623.75
2023-05-01T07:02:46.254Z,99627.76
2023-05-01T07:05:13.434Z,99626.39
2023-05-01T07:07:44.620Z,99632.40
2023-05-01T07:10:17.272Z,99631.84
2023-05-01T07:12:44.228Z,99632.48
2023-05-01T07:15:11.232Z,99643.35
2023-05-01T07:17:38.328Z,99643.84
2023-05-01T07:20:06.059Z,99640.84
2023-05-01T07:22:32.844Z,99644.75
2023-05-01T07:25:01.340Z,99649.34
2023-05-01T07:27:29.033Z,99648.98
2023-05-01T07:29:57.442Z,99650.17
2023-05-01T07:32:24.673Z,99659.18
2023-05-01T07:34:51.773Z,99655.98
2023-05-01T07:37:19.030Z,99659.85
2023-05-01T07:39:45.935Z,99660.29
2023-05-01T07:42:12.820Z,99664.95
2023-05-01T07:44:39.671Z,99668.00
2023-05-01T07:47:06.485Z,99670.19
2023-05-01T07:49:39.890Z,99661.23
2023-05-01T07:52:09.833Z,99677.05
2023-05-01T07:54:36.861Z,99673.55
2023-05-01T07:57:06.025Z,99674.29
2023-05-01T07:59:32.871Z,99675.05
2023-05-01T08:01:59.862Z,99678.45
2023-05-01T08:04:27.927Z,99681.79
2023-05-01T08:06:54.851Z,99684.35
2023-05-01T08:09:22.130Z,99688.60
2023-05-01T08:11:48.974Z,99678.92
2023-05-01T08:14:17.891Z,99684.34
2023-05-01T08:16:44.929Z,99684.66
2023-05-01T08:19:12.061Z,99684.70
2023-05-01T08:21:38.869Z,99684.05
2023-05-01T08:24:09.014Z,99685.14
2023-05-01T08:26:35.928Z,99684.06
2023-05-01T08:29:02.952Z,99684.82
2023-05-01T08:31:29.744Z,99694.23
2023-05-01T08:33:56.855Z,99696.88
2023-05-01T08:36:23.700Z,99693.06
2023-05-01T08:38:50.487Z,99692.23
2023-05-01T08:41:24.025Z,99685.58
2023-05-01T08:43:50.984Z,99687.96
2023-05-01T08:46:23.994Z,99687.27
2023-05-01T08:48:50.879Z,99693.23
2023-05-01T08:51:21.251Z,99691.81
2023-05-01T08:53:50.791Z,99700.30
2023-05-01T08:56:18.234Z,99691.76
2023-05-01T08:58:45.493Z,99700.02
2023-05-01T09:01:15.197Z,99705.42
2023-05-01T09:03:44.700Z,99707.95
2023-05-01T09:06:11.688Z,99700.29
2023-05-01T09:08:38.644Z,99700.14
2023-05-01T09:11:06.437Z,99704.43
2023-05-01T09:13:33.452Z,99713.71
2023-05-01T09:16:01.139Z,99711.95
2023-05-01T09:18:50.596Z,99716.55
2023-05-01T09:21:18.762Z,99716.67
2023-05-01T09:23:45.568Z,99719.70
2023-05-01T09:26:12.502Z,99717.00
2023-05-01T09:28:44.018Z,99716.80
2023-05-01T09:31:21.796Z,99718.34
2023-05-01T09:33:54.557Z,99715.28
2023-05-01T09:36:21.877Z,99704.25
2023-05-01T09:38:48.629Z,99708.58
2023-05-01T09:41:15.596Z,99723.63
2023-05-01T09:43:44.066Z,99726.70
2023-05-01T09:46:10.936Z,99724.84
2023-05-01T09:48:38.143Z,99725.16
2023-05-01T09:51:22.812Z,99727.03
2023-05-01T09:53:49.915Z,99714.55
2023-05-01T09:56:17.454Z,99716.14
2023-05-01T09:58:44.750Z,99728.80
2023-05-01T10:01:11.744Z,99733.89
2023-05-01T10:03:39.023Z,99743.11
2023-05-01T10:06:06.042Z,99742.61
2023-05-01T10:08:49.412Z,99734.53
2023-05-01T10:11:16.438Z,99743.64
2023-05-01T10:13:43.402Z,99741.92
2023-05-01T10:16:28.757Z,99743.16
2023-05-01T10:18:57.408Z,99730.90
2023-05-01T10:21:24.480Z,99735.53
2023-05-01T10:23:52.711Z,99746.16
2023-05-01T10:26:20.710Z,99739.76
2023-05-01T10:28:49.202Z,99734.48
2023-05-01T10:31:16.852Z,99740.19
2023-05-01T10:33:44.392Z,99741.14
2023-05-01T10:36:23.957Z,99745.30
2023-05-01T10:38:50.820Z,99744.48
2023-05-01T10:41:17.803Z,99751.17
2023-05-01T10:43:44.660Z,99755.41
2023-05-01T10:46:15.640Z,99759.27
2023-05-01T10:48:43.897Z,99754.54
2023-05-01T10:51:13.097Z,99748.17
2023-05-01T10:53:41.060Z,99744.13
2023-05-01T10:56:27.055Z,99749.60
2023-05-01T10:58:54.012Z,99760.41
2023-05-01T11:01:28.206Z,99765.70
2023-05-01T11:03:58.972Z,99756.48
2023-05-01T11:06:26.025Z,99755.36
2023-05-01T11:08:53.452Z,99753.55
2023-05-01T11:11:21.244Z,99756.95
2023-05-01T11:14:08.776Z,99755.98
2023-05-01T11:16:46.360Z,99752.39
2023-05-01T11:19:22.653Z,99749.94
2023-05-01T11:21:50.658Z,99754.61
2023-05-01T11:24:20.591Z,99756.33
2023-05-01T11:26:47.457Z,99761.92
2023-05-01T11:29:14.292Z,99757.05
2023-05-01T11:31:41.530Z,99753.95
2023-05-01T11:34:08.414Z,99748.04
2023-05-01T11:36:51.516Z,99746.28
2023-05-01T11:39:19.025Z,99748.22
2023-05-01T11:41:46.676Z,99756.91
2023-05-01T11:44:17.649Z,99749.96
2023-05-01T11:46:44.743Z,99749.19
2023-05-01T11:49:11.682Z,99753.30
2023-05-01T11:51:38.611Z,99754.29
2023-05-01T11:54:09.888Z,99754.75
2023-05-01T11:56:37.439Z,99759.56
2023-05-01T11:59:18.101Z,99762.64
2023-05-01T12:01:45.957Z,99762.92
2023-05-01T12:04:13.996Z,99762.21
2023-05-01T12:06:45.970Z,99768.52
2023-05-01T12:09:20.435Z,99766.30
2023-05-01T12:11:51.192Z,99764.58
2023-05-01T12:14:19.534Z,99763.34
2023-05-01T12:16:46.606Z,99770.27
2023-05-01T12:19:14.409Z,99767.54
2023-05-01T12:21:41.373Z,99767.48
2023-05-01T12:24:18.373Z,99769.06
2023-05-01T12:26:45.644Z,99772.27
2023-05-01T12:29:12.657Z,99766.42
2023-05-01T12:31:47.516Z,99770.20
2023-05-01T12:34:14.418Z,99768.35
2023-05-01T12:36:41.254Z,99766.24
2023-05-01T12:39:09.803Z,99758.16
2023-05-01T12:41:38.373Z,99766.67
2023-05-01T12:44:27.949Z,99762.54
2023-05-01T12:47:16.151Z,99765.86
2023-05-01T12:49:42.926Z,99769.88
2023-05-01T12:52:09.764Z,99773.68
2023-05-01T12:54:37.878Z,99775.73
2023-05-01T12:57:14.669Z,99777.54
2023-05-01T12:59:43.168Z,99780.33
2023-05-01T13:02:12.536Z,99779.17
2023-05-01T13:04:39.528Z,99782.70
2023-05-01T13:07:15.130Z,99782.86
2023-05-01T13:09:56.024Z,99780.54
2023-05-01T13:12:23.566Z,99781.50
2023-05-01T13:14:50.332Z,99782.83
2023-05-01T13:17:27.970Z,99779.15
2023-05-01T13:19:55.014Z,99778.79
2023-05-01T13:22:48.460Z,99782.09
2023-05-01T13:25:17.498Z,99786.43
2023-05-01T13:27:51.313Z,99786.73
2023-05-01T13:30:31.077Z,99781.54
2023-05-01T13:32:57.916Z,99782.20
2023-05-01T13:35:25.712Z,99781.52
2023-05-01T13:37:52.866Z,99782.10
2023-05-01T13:40:19.861Z,99787.94
2023-05-01T13:42:47.043Z,99790.39
2023-05-01T13:45:14.832Z,99796.27
2023-05-01T13:47:41.849Z,99795.92
2023-05-01T13:50:16.260Z,99797.71
2023-05-01T13:52:44.333Z,99796.76
2023-05-01T13:55:12.123Z,99799.84
2023-05-01T13:57:40.614Z,99802.94
2023-05-01T14:00:09.299Z,99800.71
2023-05-01T14:02:43.925Z,99802.38
2023-05-01T14:05:11.096Z,99809.79
2023-05-01T14:07:46.491Z,99807.67
2023-05-01T14:10:13.447Z,99803.58
2023-05-01T14:12:40.850Z,99803.30
2023-05-01T14:15:11.717Z,99803.91
2023-05-01T14:17:38.985Z,99811.77
2023-05-01T14:20:08.888Z,99811.98
2023-05-01T14:22:45.477Z,99814.39
2023-05-01T14:25:28.799Z,99817.05
2023-05-01T14:27:56.131Z,99816.99
2023-05-01T14:30:33.489Z,99819.04
2023-05-01T14:33:10.296Z,99820.11
2023-05-01T14:35:38.154Z,99823.36
2023-05-01T14:38:15.220Z,99827.13
2023-05-01T14:40:42.331Z,99826.02
2023-05-01T14:43:10.570Z,99829.89
2023-05-01T14:45:37.529Z,99829.41
2023-05-01T14:48:04.665Z,99834.84
2023-05-01T14:50:31.902Z,99834.30
2023-05-01T14:52:59.574Z,99833.06
2023-05-01T14:55:29.320Z,99833.53
2023-05-01T14:57:56.403Z,99829.92
2023-05-01T15:00:24.340Z,99837.73
2023-05-01T15:02:51.541Z,99839.27
2023-05-01T15:05:18.733Z,99843.96
2023-05-01T15:07:46.101Z,99849.76
2023-05-01T15:10:13.025Z,99848.98
2023-05-01T15:12:39.809Z,99854.08
2023-05-01T15:15:07.657Z,99853.77
2023-05-01T15:17:34.551Z,99857.96
2023-05-01T15:20:01.487Z,99853.50
2023-05-01T15:22:28.406Z,99855.11
2023-05-01T15:24:55.157Z,99858.77
2023-05-01T15:27:21.968Z,99863.30
2023-05-01T15:29:48.868Z,99864.70
2023-05-01T15:32:15.865Z,99860.45
2023-05-01T15:34:42.971Z,99867.11
2023-05-01T15:37:09.864Z,99869.92
2023-05-01T15:39:36.945Z,99868.77
2023-05-01T15:42:03.837Z,99868.63
2023-05-01T15:44:31.965Z,99872.10
2023-05-01T15:46:58.942Z,99875.43
2023-05-01T15:49:25.862Z,99879.45
2023-05-01T15:51:52.734Z,99880.86
2023-05-01T15:54:19.683Z,99880.04
2023-05-01T15:56:46.484Z,99884.75
2023-05-01T15:59:14.540Z,99887.21
2023-05-01T16:01:41.496Z,99887.60
2023-05-01T16:04:08.491Z,99891.59
2023-05-01T16:06:35.392Z,99894.23
2023-05-01T16:09:02.629Z,99901.73
2023-05-01T16:11:30.710Z,99907.27
2023-05-01T16:14:13.053Z,99909.75
2023-05-01T16:16:41.666Z,99914.09
2023-05-01T16:19:08.677Z,99917.06
2023-05-01T16:21:36.488Z,99920.52
2023-05-01T16:24:03.693Z,99923.65
2023-05-01T16:26:31.524Z,99927.83
2023-05-01T16:29:03.062Z,99933.21
2023-05-01T16:31:39.071Z,99938.61
2023-05-01T16:34:07.222Z,99936.05
2023-05-01T16:36:40.090Z,99944.02
2023-05-01T16:39:08.974Z,99948.71
2023-05-01T16:41:44.785Z,99952.36
2023-05-01T16:44:12.765Z,99954.27
2023-05-01T16:46:43.583Z,99954.48
2023-05-01T16:49:11.447Z,99959.16
2023-05-01T16:51:39.541Z,99966.29
2023-05-01T16:54:06.586Z,99968.89
2023-05-01T16:56:50.363Z,99970.45
2023-05-01T16:59:25.041Z,99972.89
2023-05-01T17:02:02.131Z,99973.60
2023-05-01T17:04:29.083Z,99979.14
2023-05-01T17:06:56.451Z,99988.32
2023-05-01T17:09:23.502Z,99986.77
2023-05-01T17:11:56.891Z,99988.67
2023-05-01T17:14:23.983Z,99992.27
2023-05-01T17:16:51.087Z,99999.02
2023-05-01T17:19:17.990Z,99999.00
2023-05-01T17:21:44.812Z,100001.60
2023-05-01T17:24:13.143Z,100005.22
2023-05-01T17:26:40.077Z,100004.01
2023-05-01T17:29:06.964Z,100011.24
2023-05-01T17:31:33.948Z,100010.39
2023-05-01T17:34:00.998Z,100018.14
2023-05-01T17:36:29.283Z,100018.31
2023-05-01T17:38:56.468Z,100017.44
2023-05-01T17:41:24.883Z,100023.80
2023-05-01T17:43:51.704Z,100029.67
2023-05-01T17:46:18.634Z,100033.79
2023-05-01T17:48:45.639Z,100035.84
2023-05-01T17:51:15.317Z,100038.57
2023-05-01T17:53:42.354Z,100040.95
2023-05-01T17:56:09.159Z,100046.11
2023-05-01T17:58:36.469Z,100049.70
2023-05-01T18:01:04.930Z,100053.48
2023-05-01T18:03:35.135Z,100057.60
2023-05-01T18:06:02.852Z,100059.98
2023-05-01T18:08:29.802Z,100063.41
2023-05-01T18:10:56.770Z,100070.81
2023-05-01T18:13:28.662Z,100067.68
2023-05-01T18:15:56.062Z,100072.66
2023-05-01T18:18:23.399Z,100076.42
2023-05-01T18:20:50.442Z,100080.15
2023-05-01T18:23:20.507Z,100080.63
2023-05-01T18:25:47.655Z,100081.46
2023-05-01T18:28:16.646Z,100083.98
2023-05-01T18:30:44.072Z,100087.40
2023-05-01T18:33:13.554Z,100090.27
2023-05-01T18:35:42.020Z,100090.39
2023-05-01T18:38:12.390Z,100090.87
2023-05-01T18:40:47.921Z,100095.66
2023-05-01T18:43:17.183Z,100098.68
2023-05-01T18:45:44.102Z,100107.58
2023-05-01T18:48:13.236Z,100110.65
2023-05-01T18:50:51.301Z,100110.73
2023-05-01T18:53:25.876Z,100110.52
2023-05-01T18:55:54.723Z,100112.52
2023-05-01T18:58:27.609Z,100117.63
2023-05-01T19:00:55.378Z,100120.67
2023-05-01T19:03:24.371Z,100121.11
2023-05-01T19:05:51.192Z,100123.98
2023-05-01T19:08:18.085Z,100125.46
2023-05-01T19:10:44.994Z,100129.17
2023-05-01T19:13:12.436Z,100128.27
2023-05-01T19:15:39.367Z,100131.00
2023-05-01T19:18:06.323Z,100131.85
2023-05-01T19:20:33.292Z,100130.29
2023-05-01T19:23:00.127Z,100132.69
2023-05-01T19:25:27.138Z,100135.25
2023-05-01T19:27:54.041Z,100137.29
2023-05-01T19:30:21.083Z,100139.84
2023-05-01T19:32:48.181Z,100140.69
2023-05-01T19:35:15.142Z,100141.34
2023-05-01T19:37:41.958Z,100145.11
2023-05-01T19:40:09.134Z,100148.86
2023-05-01T19:42:36.595Z,100152.90
2023-05-01T19:45:03.672Z,100157.23
2023-05-01T19:47:30.720Z,100158.15
2023-05-01T19:49:57.832Z,100158.77
2023-05-01T19:52:24.982Z,100160.83
2023-05-01T19:54:51.947Z,100162.43
2023-05-01T19:57:18.834Z,100166.11
2023-05-01T19:59:45.773Z,100162.27
2023-05-01T20:02:12.661Z,100168.04
2023-05-01T20:04:39.626Z,100171.27
2023-05-01T20:07:06.535Z,100171.39
2023-05-01T20:09:33.354Z,100176.33
2023-05-01T20:12:00.187Z,100176.80
2023-05-01T20:14:27.166Z,100179.48
2023-05-01T20:16:54.178Z,100177.52
2023-05-01T20:19:21.245Z,100176.77
2023-05-01T20:21:48.737Z,100179.47
2023-05-01T20:24:15.577Z,100182.16
2023-05-01T20:26:42.373Z,100185.36
2023-05-01T20:29:09.554Z,100188.91
2023-05-01T20:31:36.604Z,100187.31
2023-05-01T20:34:03.551Z,100194.98
2023-05-01T20:36:30.440Z,100192.88
2023-05-01T20:38:58.144Z,100194.70
2023-05-01T20:41:25.718Z,100193.41
2023-05-01T20:43:52.742Z,100195.02
2023-05-01T20:46:20.058Z,100194.93
2023-05-01T20:48:47.610Z,100196.74
2023-05-01T20:51:15.955Z,100197.70
2023-05-01T20:53:42.737Z,100197.09
2023-05-01T20:56:09.566Z,100199.20
2023-05-01T20:58:36.557Z,100199.75
2023-05-01T21:01:03.407Z,100198.25
2023-05-01T21:03:30.319Z,100206.94
2023-05-01T21:06:00.982Z,100209.23
2023-05-01T21:08:27.902Z,100208.41
2023-05-01T21:10:54.955Z,100212.95
2023-05-01T21:13:22.872Z,100212.22
2023-05-01T21:15:49.740Z,100216.95
2023-05-01T21:18:17.602Z,100219.23
2023-05-01T21:20:46.284Z,100223.02
2023-05-01T21:23:13.725Z,100221.15
2023-05-01T21:25:40.528Z,100225.48
2023-05-01T21:28:11.569Z,100229.90
2023-05-01T21:30:38.388Z,100236.17
2023-05-01T21:33:06.513Z,100234.92
2023-05-01T21:35:33.381Z,100235.38
2023-05-01T21:38:00.137Z,100236.02
2023-05-01T21:40:27.596Z,100236.11
2023-05-01T21:42:54.620Z,100244.80
2023-05-01T21:45:21.504Z,100244.23
2023-05-01T21:47:49.637Z,100245.02
2023-05-01T21:50:18.049Z,100243.55
2023-05-01T21:52:46.139Z,100248.27
2023-05-01T21:55:20.795Z,100256.52
2023-05-01T21:57:49.871Z,100256.70
2023-05-01T22:00:18.231Z,100259.11
2023-05-01T22:02:46.672Z,100262.98
2023-05-01T22:05:13.914Z,100269.08
2023-05-01T22:07:45.216Z,100268.45
2023-05-01T22:10:17.133Z,100273.48
2023-05-01T22:12:44.771Z,100273.55
2023-05-01T22:15:12.219Z,100275.20
2023-05-01T22:17:39.531Z,100278.36
2023-05-01T22:20:07.311Z,100277.03
2023-05-01T22:22:34.807Z,100283.21
2023-05-01T22:25:01.661Z,100286.97
2023-05-01T22:27:28.502Z,100284.59
2023-05-01T22:29:55.305Z,100282.73
2023-05-01T22:32:22.130Z,100287.56
2023-05-01T22:34:49.139Z,100290.90
2023-05-01T22:37:15.983Z,100294.98
2023-05-01T22:39:43.002Z,100295.06
2023-05-01T22:42:09.833Z,100293.80
2023-05-01T22:44:36.732Z,100293.73
2023-05-01T22:47:03.511Z,100296.70
2023-05-01T22:49:32.852Z,100295.43
2023-05-01T22:51:59.907Z,100294.45
2023-05-01T22:54:26.640Z,100291.75
2023-05-01T22:56:53.613Z,100293.20
2023-05-01T22:59:21.838Z,100293.95
2023-05-01T23:01:49.004Z,100297.53
2023-05-01T23:04:15.953Z,100298.34
2023-05-01T23:06:44.428Z,100295.35
2023-05-01T23:09:12.000Z,100300.25
2023-05-01T23:11:39.607Z,100302.52
2023-05-01T23:14:06.405Z,100305.47
2023-05-01T23:16:38.749Z,100302.66
2023-05-01T23:19:05.679Z,100305.70
2023-05-01T23:21:32.439Z,100304.64
2023-05-01T23:23:59.253Z,100306.08
2023-05-01T23:26:26.836Z,100304.46
2023-05-01T23:28:53.859Z,100301.30
2023-05-01T23:31:25.738Z,100298.52
2023-05-01T23:33:53.414Z,100296.77
2023-05-01T23:36:20.512Z,100299.34
2023-05-01T23:38:47.495Z,100301.21
2023-05-01T23:41:14.747Z,100302.58
2023-05-01T23:43:41.565Z,100303.06
2023-05-01T23:46:08.443Z,100302.55
2023-05-01T23:48:35.378Z,100307.15
2023-05-01T23:51:02.253Z,100311.77
2023-05-01T23:53:29.079Z,100315.95
2023-05-01T23:55:55.920Z,100313.60
2023-05-01T23:58:23.594Z,100321.28
